sensor_id;sensor_type;location;lat;lon;timestamp;pressure;altitude;pressure_sealevel;temperature;humidity
63654;BME280;49809;47.418;19.080;2023-02-18T00:00:05;100805.28;;;10.09;83.22
63654;BME280;49809;47.418;19.080;2023-02-18T00:03:10;100788.69;;;10.25;83.45
63654;BME280;49809;47.418;19.080;2023-02-18T00:06:35;100790.00;;;10.39;83.39
63654;BME280;49809;47.418;19.080;2023-02-18T00:10:13;100784.91;;;10.50;83.38
63654;BME280;49809;47.418;19.080;2023-02-18T00:13:17;100789.84;;;10.46;83.73
63654;BME280;49809;47.418;19.080;2023-02-18T00:16:23;100780.91;;;10.64;83.45
63654;BME280;49809;47.418;19.080;2023-02-18T00:19:48;100786.50;;;10.67;83.40
63654;BME280;49809;47.418;19.080;2023-02-18T00:22:51;100781.56;;;10.87;82.90
63654;BME280;49809;47.418;19.080;2023-02-18T00:33:36;100772.84;;;11.09;82.21
63654;BME280;49809;47.418;19.080;2023-02-18T00:36:41;100772.59;;;11.27;82.05
63654;BME280;49809;47.418;19.080;2023-02-18T00:39:45;100766.66;;;11.37;81.66
63654;BME280;49809;47.418;19.080;2023-02-18T00:42:48;100768.19;;;11.32;81.92
63654;BME280;49809;47.418;19.080;2023-02-18T00:46:04;100764.97;;;11.30;82.21
63654;BME280;49809;47.418;19.080;2023-02-18T00:49:11;100767.03;;;11.45;81.88
63654;BME280;49809;47.418;19.080;2023-02-18T00:52:15;100765.91;;;11.41;82.04
63654;BME280;49809;47.418;19.080;2023-02-18T00:55:21;100759.31;;;11.44;81.77
63654;BME280;49809;47.418;19.080;2023-02-18T00:58:28;100761.41;;;11.42;81.85
63654;BME280;49809;47.418;19.080;2023-02-18T01:01:32;100753.19;;;11.43;81.85
63654;BME280;49809;47.418;19.080;2023-02-18T01:04:38;100751.12;;;11.45;81.85
63654;BME280;49809;47.418;19.080;2023-02-18T01:07:42;100745.63;;;11.52;81.73
63654;BME280;49809;47.418;19.080;2023-02-18T01:10:49;100744.41;;;11.59;81.32
63654;BME280;49809;47.418;19.080;2023-02-18T01:14:18;100754.72;;;11.77;80.64
63654;BME280;49809;47.418;19.080;2023-02-18T01:17:21;100750.72;;;11.75;80.63
63654;BME280;49809;47.418;19.080;2023-02-18T01:20:25;100741.44;;;11.77;80.66
63654;BME280;49809;47.418;19.080;2023-02-18T01:23:28;100740.34;;;11.95;79.96
63654;BME280;49809;47.418;19.080;2023-02-18T01:26:32;100738.53;;;12.01;79.67
63654;BME280;49809;47.418;19.080;2023-02-18T01:29:35;100737.81;;;12.10;79.04
63654;BME280;49809;47.418;19.080;2023-02-18T01:32:48;100735.37;;;12.04;79.10
63654;BME280;49809;47.418;19.080;2023-02-18T01:35:51;100747.66;;;12.10;78.72
63654;BME280;49809;47.418;19.080;2023-02-18T01:39:00;100732.84;;;12.14;78.17
63654;BME280;49809;47.418;19.080;2023-02-18T01:42:06;100734.34;;;12.05;78.39
63654;BME280;49809;47.418;19.080;2023-02-18T01:48:37;100719.09;;;12.22;77.11
63654;BME280;49809;47.418;19.080;2023-02-18T01:52:01;100724.94;;;12.19;77.17
63654;BME280;49809;47.418;19.080;2023-02-18T01:55:27;100722.16;;;12.09;77.61
63654;BME280;49809;47.418;19.080;2023-02-18T01:58:35;100722.13;;;12.04;77.86
63654;BME280;49809;47.418;19.080;2023-02-18T02:01:41;100718.47;;;12.10;77.72
63654;BME280;49809;47.418;19.080;2023-02-18T02:05:09;100723.78;;;12.10;77.59
63654;BME280;49809;47.418;19.080;2023-02-18T02:08:15;100704.63;;;12.08;77.73
63654;BME280;49809;47.418;19.080;2023-02-18T02:18:42;100693.41;;;12.01;78.40
63654;BME280;49809;47.418;19.080;2023-02-18T02:45:53;100670.00;;;13.45;70.95
63654;BME280;49809;47.418;19.080;2023-02-18T02:52:47;100670.00;;;13.51;70.60
63654;BME280;49809;47.418;19.080;2023-02-18T02:55:57;100655.59;;;13.46;70.77
63654;BME280;49809;47.418;19.080;2023-02-18T02:59:09;100647.37;;;13.48;70.52
63654;BME280;49809;47.418;19.080;2023-02-18T03:21:52;100693.84;;;13.25;71.44
63654;BME280;49809;47.418;19.080;2023-02-18T03:25:02;100694.66;;;13.31;71.25
63654;BME280;49809;47.418;19.080;2023-02-18T03:28:18;100694.91;;;13.29;71.45
63654;BME280;49809;47.418;19.080;2023-02-18T03:31:46;100713.00;;;13.32;71.42
63654;BME280;49809;47.418;19.080;2023-02-18T03:35:12;100705.59;;;13.39;71.19
63654;BME280;49809;47.418;19.080;2023-02-18T03:39:08;100712.00;;;13.48;70.93
63654;BME280;49809;47.418;19.080;2023-02-18T03:42:17;100711.37;;;13.31;71.74
63654;BME280;49809;47.418;19.080;2023-02-18T03:45:44;100707.94;;;13.26;72.11
63654;BME280;49809;47.418;19.080;2023-02-18T03:48:51;100713.38;;;13.09;72.89
63654;BME280;49809;47.418;19.080;2023-02-18T03:52:19;100716.84;;;13.10;73.15
63654;BME280;49809;47.418;19.080;2023-02-18T03:55:41;100704.00;;;12.96;73.63
63654;BME280;49809;47.418;19.080;2023-02-18T03:58:45;100711.44;;;12.94;73.91
63654;BME280;49809;47.418;19.080;2023-02-18T04:01:50;100717.34;;;13.01;73.66
63654;BME280;49809;47.418;19.080;2023-02-18T04:05:00;100730.31;;;12.98;73.96
63654;BME280;49809;47.418;19.080;2023-02-18T04:08:35;100719.59;;;12.83;74.61
63654;BME280;49809;47.418;19.080;2023-02-18T04:12:05;100729.91;;;12.79;74.93
63654;BME280;49809;47.418;19.080;2023-02-18T04:15:09;100735.03;;;12.86;74.84
63654;BME280;49809;47.418;19.080;2023-02-18T04:18:46;100717.47;;;12.85;74.85
63654;BME280;49809;47.418;19.080;2023-02-18T04:22:24;100732.91;;;12.83;74.93
63654;BME280;49809;47.418;19.080;2023-02-18T04:26:02;100725.94;;;12.77;75.20
63654;BME280;49809;47.418;19.080;2023-02-18T04:29:07;100738.13;;;12.73;75.26
63654;BME280;49809;47.418;19.080;2023-02-18T04:32:35;100741.03;;;12.71;75.26
63654;BME280;49809;47.418;19.080;2023-02-18T04:36:19;100736.53;;;12.72;75.26
63654;BME280;49809;47.418;19.080;2023-02-18T04:39:41;100739.63;;;12.63;75.64
63654;BME280;49809;47.418;19.080;2023-02-18T04:42:48;100749.91;;;12.55;75.84
63654;BME280;49809;47.418;19.080;2023-02-18T04:46:23;100727.88;;;12.54;75.91
63654;BME280;49809;47.418;19.080;2023-02-18T04:54:08;100751.19;;;12.47;76.27
63654;BME280;49809;47.418;19.080;2023-02-18T04:57:15;100752.81;;;12.48;76.56
63654;BME280;49809;47.418;19.080;2023-02-18T05:01:03;100757.97;;;12.33;77.33
63654;BME280;49809;47.418;19.080;2023-02-18T05:04:28;100764.16;;;12.17;79.77
63654;BME280;49809;47.418;19.080;2023-02-18T05:08:13;100774.72;;;12.12;79.64
63654;BME280;49809;47.418;19.080;2023-02-18T05:12:05;100775.34;;;12.19;78.53
63654;BME280;49809;47.418;19.080;2023-02-18T05:15:35;100778.47;;;12.16;78.78
63654;BME280;49809;47.418;19.080;2023-02-18T05:19:21;100783.75;;;12.11;78.90
63654;BME280;49809;47.418;19.080;2023-02-18T05:22:42;100786.66;;;12.09;78.75
63654;BME280;49809;47.418;19.080;2023-02-18T05:26:05;100793.25;;;12.07;78.88
63654;BME280;49809;47.418;19.080;2023-02-18T05:29:32;100791.09;;;12.04;79.09
63654;BME280;49809;47.418;19.080;2023-02-18T05:33:36;100794.75;;;11.98;79.32
63654;BME280;49809;47.418;19.080;2023-02-18T05:37:03;100790.31;;;12.03;79.10
63654;BME280;49809;47.418;19.080;2023-02-18T05:40:24;100790.00;;;12.00;79.22
63654;BME280;49809;47.418;19.080;2023-02-18T05:43:47;100782.97;;;11.89;79.79
63654;BME280;49809;47.418;19.080;2023-02-18T05:47:50;100796.22;;;11.89;79.87
63654;BME280;49809;47.418;19.080;2023-02-18T05:51:16;100803.37;;;11.88;80.18
63654;BME280;49809;47.418;19.080;2023-02-18T05:55:07;100801.59;;;11.94;80.11
63654;BME280;49809;47.418;19.080;2023-02-18T05:58:32;100819.66;;;11.97;80.20
63654;BME280;49809;47.418;19.080;2023-02-18T06:01:55;100820.97;;;11.94;80.38
63654;BME280;49809;47.418;19.080;2023-02-18T06:05:24;100845.38;;;11.96;80.46
63654;BME280;49809;47.418;19.080;2023-02-18T06:08:47;100860.94;;;11.88;81.04
63654;BME280;49809;47.418;19.080;2023-02-18T06:11:52;100854.59;;;11.89;81.72
63654;BME280;49809;47.418;19.080;2023-02-18T06:14:58;100847.31;;;11.79;83.67
63654;BME280;49809;47.418;19.080;2023-02-18T06:18:43;100861.00;;;11.54;86.49
63654;BME280;49809;47.418;19.080;2023-02-18T06:21:47;100862.38;;;11.23;89.43
63654;BME280;49809;47.418;19.080;2023-02-18T06:25:09;100865.50;;;11.20;88.96
63654;BME280;49809;47.418;19.080;2023-02-18T06:28:12;100874.34;;;11.26;87.94
63654;BME280;49809;47.418;19.080;2023-02-18T06:31:58;100870.66;;;11.27;87.40
63654;BME280;49809;47.418;19.080;2023-02-18T06:35:38;100875.38;;;11.25;87.33
63654;BME280;49809;47.418;19.080;2023-02-18T06:39:23;100889.22;;;11.27;87.30
63654;BME280;49809;47.418;19.080;2023-02-18T06:42:48;100897.47;;;11.14;90.34
63654;BME280;49809;47.418;19.080;2023-02-18T06:46:08;100884.03;;;10.87;92.94
63654;BME280;49809;47.418;19.080;2023-02-18T06:49:27;100875.97;;;10.65;95.41
63654;BME280;49809;47.418;19.080;2023-02-18T06:52:44;100884.37;;;10.62;96.40
63654;BME280;49809;47.418;19.080;2023-02-18T06:56:18;100878.69;;;10.70;95.03
63654;BME280;49809;47.418;19.080;2023-02-18T06:59:35;100887.94;;;10.84;94.14
63654;BME280;49809;47.418;19.080;2023-02-18T07:03:11;100879.16;;;10.96;93.06
63654;BME280;49809;47.418;19.080;2023-02-18T07:06:37;100875.16;;;10.93;93.26
63654;BME280;49809;47.418;19.080;2023-02-18T07:10:05;100891.13;;;10.98;93.49
63654;BME280;49809;47.418;19.080;2023-02-18T07:13:50;100892.00;;;11.04;92.94
63654;BME280;49809;47.418;19.080;2023-02-18T07:17:13;100901.00;;;11.03;92.88
63654;BME280;49809;47.418;19.080;2023-02-18T07:20:20;100890.94;;;11.05;92.45
63654;BME280;49809;47.418;19.080;2023-02-18T07:23:27;100899.00;;;11.10;91.80
63654;BME280;49809;47.418;19.080;2023-02-18T07:26:30;100899.38;;;11.18;91.79
63654;BME280;49809;47.418;19.080;2023-02-18T07:29:40;100895.97;;;11.18;92.29
63654;BME280;49809;47.418;19.080;2023-02-18T07:33:15;100887.69;;;11.31;91.84
63654;BME280;49809;47.418;19.080;2023-02-18T07:37:03;100893.75;;;11.48;91.14
63654;BME280;49809;47.418;19.080;2023-02-18T07:40:31;100889.06;;;11.72;89.70
63654;BME280;49809;47.418;19.080;2023-02-18T07:43:54;100879.44;;;11.83;88.16
63654;BME280;49809;47.418;19.080;2023-02-18T07:47:17;100873.97;;;11.89;88.32
63654;BME280;49809;47.418;19.080;2023-02-18T07:50:54;100879.66;;;11.98;87.40
63654;BME280;49809;47.418;19.080;2023-02-18T07:54:00;100877.19;;;12.13;85.82
63654;BME280;49809;47.418;19.080;2023-02-18T07:57:29;100873.03;;;12.22;85.44
63654;BME280;49809;47.418;19.080;2023-02-18T08:00:52;100879.03;;;12.34;84.67
63654;BME280;49809;47.418;19.080;2023-02-18T08:04:32;100869.06;;;12.46;83.38
63654;BME280;49809;47.418;19.080;2023-02-18T08:07:35;100870.56;;;12.37;83.83
63654;BME280;49809;47.418;19.080;2023-02-18T08:11:13;100875.38;;;12.40;83.34
63654;BME280;49809;47.418;19.080;2023-02-18T08:14:56;100878.44;;;12.54;83.42
63654;BME280;49809;47.418;19.080;2023-02-18T08:18:29;100881.69;;;12.88;81.85
63654;BME280;49809;47.418;19.080;2023-02-18T08:22:07;100885.28;;;13.03;80.25
63654;BME280;49809;47.418;19.080;2023-02-18T08:25:27;100886.09;;;13.04;79.60
63654;BME280;49809;47.418;19.080;2023-02-18T08:29:21;100891.69;;;13.34;78.48
63654;BME280;49809;47.418;19.080;2023-02-18T08:32:39;100891.84;;;13.55;77.32
63654;BME280;49809;47.418;19.080;2023-02-18T08:35:57;100887.59;;;13.59;76.67
63654;BME280;49809;47.418;19.080;2023-02-18T08:39:34;100887.00;;;13.52;77.41
63654;BME280;49809;47.418;19.080;2023-02-18T08:43:18;100888.34;;;13.49;77.55
63654;BME280;49809;47.418;19.080;2023-02-18T08:47:16;100892.84;;;13.48;77.55
63654;BME280;49809;47.418;19.080;2023-02-18T08:51:17;100888.16;;;13.66;76.40
63654;BME280;49809;47.418;19.080;2023-02-18T08:55:18;100876.16;;;13.58;76.09
63654;BME280;49809;47.418;19.080;2023-02-18T08:59:05;100880.22;;;13.71;75.64
63654;BME280;49809;47.418;19.080;2023-02-18T09:02:42;100874.69;;;13.77;74.99
63654;BME280;49809;47.418;19.080;2023-02-18T09:06:54;100870.84;;;14.10;73.99
63654;BME280;49809;47.418;19.080;2023-02-18T09:10:20;100886.97;;;14.46;72.64
63654;BME280;49809;47.418;19.080;2023-02-18T09:14:23;100886.88;;;14.25;72.78
63654;BME280;49809;47.418;19.080;2023-02-18T09:17:27;100884.00;;;13.80;74.37
63654;BME280;49809;47.418;19.080;2023-02-18T09:20:57;100880.16;;;13.61;75.03
63654;BME280;49809;47.418;19.080;2023-02-18T09:24:22;100882.09;;;13.33;75.71
63654;BME280;49809;47.418;19.080;2023-02-18T09:27:27;100885.50;;;13.24;75.98
63654;BME280;49809;47.418;19.080;2023-02-18T09:30:32;100874.94;;;13.34;76.46
63654;BME280;49809;47.418;19.080;2023-02-18T09:34:00;100873.56;;;13.26;76.23
63654;BME280;49809;47.418;19.080;2023-02-18T09:37:03;100869.44;;;13.45;75.66
63654;BME280;49809;47.418;19.080;2023-02-18T09:48:13;100848.75;;;14.15;72.33
63654;BME280;49809;47.418;19.080;2023-02-18T09:51:35;100838.69;;;14.32;72.00
63654;BME280;49809;47.418;19.080;2023-02-18T09:54:41;100848.69;;;14.00;72.13
63654;BME280;49809;47.418;19.080;2023-02-18T09:57:58;100851.16;;;14.16;72.66
63654;BME280;49809;47.418;19.080;2023-02-18T10:01:31;100839.56;;;14.53;70.83
63654;BME280;49809;47.418;19.080;2023-02-18T10:04:40;100851.31;;;14.57;70.30
63654;BME280;49809;47.418;19.080;2023-02-18T10:07:50;100840.66;;;14.77;69.50
63654;BME280;49809;47.418;19.080;2023-02-18T10:10:58;100855.06;;;14.86;69.37
63654;BME280;49809;47.418;19.080;2023-02-18T10:14:02;100855.31;;;15.30;67.94
63654;BME280;49809;47.418;19.080;2023-02-18T10:17:31;100848.66;;;15.53;68.22
63654;BME280;49809;47.418;19.080;2023-02-18T10:20:35;100860.69;;;15.10;68.17
63654;BME280;49809;47.418;19.080;2023-02-18T10:23:55;100855.84;;;15.37;67.89
63654;BME280;49809;47.418;19.080;2023-02-18T10:27:06;100840.47;;;15.98;66.07
63654;BME280;49809;47.418;19.080;2023-02-18T10:36:50;100845.22;;;17.00;61.60
63654;BME280;49809;47.418;19.080;2023-02-18T10:53:38;100808.19;;;16.00;64.23
63654;BME280;49809;47.418;19.080;2023-02-18T10:56:49;100805.75;;;16.03;63.82
63654;BME280;49809;47.418;19.080;2023-02-18T11:00:20;100796.28;;;15.77;64.28
63654;BME280;49809;47.418;19.080;2023-02-18T11:04:27;100784.84;;;15.61;65.78
63654;BME280;49809;47.418;19.080;2023-02-18T11:08:01;100795.72;;;15.75;65.80
63654;BME280;49809;47.418;19.080;2023-02-18T11:11:41;100789.75;;;15.14;68.55
63654;BME280;49809;47.418;19.080;2023-02-18T11:15:21;100790.00;;;15.17;68.80
63654;BME280;49809;47.418;19.080;2023-02-18T11:19:01;100799.34;;;14.64;70.99
63654;BME280;49809;47.418;19.080;2023-02-18T11:22:36;100792.94;;;14.50;72.13
63654;BME280;49809;47.418;19.080;2023-02-18T11:26:16;100780.41;;;14.41;72.82
63654;BME280;49809;47.418;19.080;2023-02-18T11:30:01;100775.13;;;14.61;72.17
63654;BME280;49809;47.418;19.080;2023-02-18T11:33:52;100765.50;;;14.50;73.09
63654;BME280;49809;47.418;19.080;2023-02-18T11:37:32;100770.84;;;14.50;72.05
63654;BME280;49809;47.418;19.080;2023-02-18T11:41:12;100769.78;;;14.56;71.53
63654;BME280;49809;47.418;19.080;2023-02-18T11:44:59;100763.91;;;14.54;71.79
63654;BME280;49809;47.418;19.080;2023-02-18T11:48:36;100749.00;;;14.68;71.89
63654;BME280;49809;47.418;19.080;2023-02-18T11:52:35;100749.53;;;14.80;71.57
63654;BME280;49809;47.418;19.080;2023-02-18T11:56:18;100746.59;;;14.71;71.38
63654;BME280;49809;47.418;19.080;2023-02-18T12:00:04;100742.59;;;14.89;71.34
63654;BME280;49809;47.418;19.080;2023-02-18T12:04:00;100728.94;;;15.11;70.43
63654;BME280;49809;47.418;19.080;2023-02-18T12:07:43;100722.19;;;15.44;69.05
63654;BME280;49809;47.418;19.080;2023-02-18T12:11:57;100715.88;;;15.19;68.88
63654;BME280;49809;47.418;19.080;2023-02-18T12:15:54;100690.41;;;15.47;67.04
63654;BME280;49809;47.418;19.080;2023-02-18T12:27:22;100684.91;;;15.23;67.87
63654;BME280;49809;47.418;19.080;2023-02-18T12:35:55;100673.25;;;14.99;65.74
63654;BME280;49809;47.418;19.080;2023-02-18T12:39:54;100671.13;;;14.96;66.04
63654;BME280;49809;47.418;19.080;2023-02-18T12:51:03;100660.28;;;15.47;63.56
63654;BME280;49809;47.418;19.080;2023-02-18T13:10:46;100628.41;;;16.09;62.31
63654;BME280;49809;47.418;19.080;2023-02-18T13:14:45;100632.91;;;16.14;62.50
63654;BME280;49809;47.418;19.080;2023-02-18T13:18:35;100621.00;;;16.01;62.04
63654;BME280;49809;47.418;19.080;2023-02-18T13:22:15;100610.63;;;15.95;62.31
63654;BME280;49809;47.418;19.080;2023-02-18T13:26:00;100618.97;;;16.17;61.80
63654;BME280;49809;47.418;19.080;2023-02-18T13:29:47;100606.78;;;16.40;61.10
63654;BME280;49809;47.418;19.080;2023-02-18T13:33:21;100596.63;;;17.13;59.14
63654;BME280;49809;47.418;19.080;2023-02-18T13:41:05;100598.41;;;16.99;58.93
63654;BME280;49809;47.418;19.080;2023-02-18T13:48:26;100577.59;;;16.72;59.89
63654;BME280;49809;47.418;19.080;2023-02-18T13:52:06;100572.84;;;16.40;60.12
63654;BME280;49809;47.418;19.080;2023-02-18T13:59:40;100559.31;;;16.27;60.99
63654;BME280;49809;47.418;19.080;2023-02-18T14:07:43;100548.94;;;15.96;62.46
63654;BME280;49809;47.418;19.080;2023-02-18T14:14:59;100536.38;;;15.68;63.49
63654;BME280;49809;47.418;19.080;2023-02-18T14:29:51;100518.63;;;16.11;61.22
63654;BME280;49809;47.418;19.080;2023-02-18T14:33:34;100517.12;;;16.00;62.49
63654;BME280;49809;47.418;19.080;2023-02-18T14:51:53;100501.50;;;14.61;63.52
63654;BME280;49809;47.418;19.080;2023-02-18T14:55:48;100497.56;;;14.23;64.33
63654;BME280;49809;47.418;19.080;2023-02-18T14:59:40;100512.50;;;14.14;64.75
63654;BME280;49809;47.418;19.080;2023-02-18T15:03:15;100502.69;;;13.89;64.96
63654;BME280;49809;47.418;19.080;2023-02-18T15:07:04;100504.31;;;13.75;65.36
63654;BME280;49809;47.418;19.080;2023-02-18T15:11:02;100487.56;;;13.70;66.09
63654;BME280;49809;47.418;19.080;2023-02-18T15:14:41;100488.37;;;13.50;66.78
63654;BME280;49809;47.418;19.080;2023-02-18T15:22:25;100479.56;;;13.19;67.57
63654;BME280;49809;47.418;19.080;2023-02-18T15:25:51;100477.31;;;12.86;68.92
63654;BME280;49809;47.418;19.080;2023-02-18T15:29:34;100471.19;;;12.75;69.11
63654;BME280;49809;47.418;19.080;2023-02-18T15:33:11;100477.16;;;12.40;69.33
63654;BME280;49809;47.418;19.080;2023-02-18T15:36:38;100485.00;;;12.15;70.18
63654;BME280;49809;47.418;19.080;2023-02-18T15:40:02;100476.94;;;12.00;70.27
63654;BME280;49809;47.418;19.080;2023-02-18T15:43:51;100467.47;;;11.77;71.08
63654;BME280;49809;47.418;19.080;2023-02-18T15:47:20;100477.22;;;11.66;71.84
63654;BME280;49809;47.418;19.080;2023-02-18T15:51:05;100471.22;;;11.49;72.66
63654;BME280;49809;47.418;19.080;2023-02-18T15:54:41;100466.88;;;11.38;73.74
63654;BME280;49809;47.418;19.080;2023-02-18T15:58:04;100461.00;;;11.31;73.73
63654;BME280;49809;47.418;19.080;2023-02-18T16:01:51;100463.97;;;11.08;74.83
63654;BME280;49809;47.418;19.080;2023-02-18T16:05:36;100465.09;;;10.90;75.49
63654;BME280;49809;47.418;19.080;2023-02-18T16:09:30;100461.06;;;10.82;75.54
63654;BME280;49809;47.418;19.080;2023-02-18T16:13:13;100464.84;;;10.65;76.04
63654;BME280;49809;47.418;19.080;2023-02-18T16:16:36;100465.25;;;10.57;76.07
63654;BME280;49809;47.418;19.080;2023-02-18T16:23:26;100469.44;;;10.31;76.81
63654;BME280;49809;47.418;19.080;2023-02-18T16:29:40;100460.81;;;10.19;77.01
63654;BME280;49809;47.418;19.080;2023-02-18T16:32:45;100458.06;;;10.14;77.37
63654;BME280;49809;47.418;19.080;2023-02-18T16:35:48;100457.91;;;10.03;78.01
63654;BME280;49809;47.418;19.080;2023-02-18T16:39:14;100450.87;;;9.92;78.26
63654;BME280;49809;47.418;19.080;2023-02-18T16:42:17;100453.22;;;9.89;78.20
63654;BME280;49809;47.418;19.080;2023-02-18T16:45:44;100441.38;;;9.91;77.65
63654;BME280;49809;47.418;19.080;2023-02-18T16:49:29;100441.75;;;9.83;78.27
63654;BME280;49809;47.418;19.080;2023-02-18T16:53:24;100437.47;;;9.77;78.39
63654;BME280;49809;47.418;19.080;2023-02-18T16:57:21;100444.75;;;9.70;78.62
63654;BME280;49809;47.418;19.080;2023-02-18T17:01:04;100438.50;;;9.59;79.18
63654;BME280;49809;47.418;19.080;2023-02-18T17:13:00;100461.94;;;9.39;80.13
63654;BME280;49809;47.418;19.080;2023-02-18T17:17:10;100449.81;;;9.38;80.39
63654;BME280;49809;47.418;19.080;2023-02-18T17:20:53;100462.56;;;9.30;80.63
63654;BME280;49809;47.418;19.080;2023-02-18T17:24:41;100469.28;;;9.21;81.23
63654;BME280;49809;47.418;19.080;2023-02-18T17:28:07;100463.38;;;9.13;81.68
63654;BME280;49809;47.418;19.080;2023-02-18T17:32:11;100469.47;;;9.14;81.74
63654;BME280;49809;47.418;19.080;2023-02-18T17:35:38;100466.38;;;9.05;82.28
63654;BME280;49809;47.418;19.080;2023-02-18T17:39:45;100465.75;;;8.98;82.77
63654;BME280;49809;47.418;19.080;2023-02-18T17:43:34;100461.31;;;8.87;83.40
63654;BME280;49809;47.418;19.080;2023-02-18T17:47:23;100455.59;;;8.79;83.91
63654;BME280;49809;47.418;19.080;2023-02-18T17:51:22;100455.50;;;8.73;84.35
63654;BME280;49809;47.418;19.080;2023-02-18T17:55:29;100443.25;;;8.67;84.88
63654;BME280;49809;47.418;19.080;2023-02-18T17:59:02;100441.22;;;8.58;85.38
63654;BME280;49809;47.418;19.080;2023-02-18T18:02:27;100447.78;;;8.44;86.05
63654;BME280;49809;47.418;19.080;2023-02-18T18:06:17;100442.78;;;8.31;86.99
63654;BME280;49809;47.418;19.080;2023-02-18T18:09:51;100443.22;;;8.27;87.12
63654;BME280;49809;47.418;19.080;2023-02-18T18:13:30;100442.66;;;8.14;87.99
63654;BME280;49809;47.418;19.080;2023-02-18T18:17:13;100448.62;;;8.09;88.17
63654;BME280;49809;47.418;19.080;2023-02-18T18:20:58;100449.09;;;7.95;88.59
63654;BME280;49809;47.418;19.080;2023-02-18T18:24:43;100446.69;;;7.81;89.32
63654;BME280;49809;47.418;19.080;2023-02-18T18:28:30;100452.06;;;7.86;89.20
63654;BME280;49809;47.418;19.080;2023-02-18T18:32:10;100454.25;;;7.78;89.84
63654;BME280;49809;47.418;19.080;2023-02-18T18:35:53;100446.34;;;7.90;89.51
63654;BME280;49809;47.418;19.080;2023-02-18T18:39:53;100456.31;;;7.76;90.34
63654;BME280;49809;47.418;19.080;2023-02-18T18:43:40;100459.06;;;7.81;90.40
63654;BME280;49809;47.418;19.080;2023-02-18T18:47:18;100457.69;;;7.90;90.11
63654;BME280;49809;47.418;19.080;2023-02-18T18:51:17;100456.66;;;8.03;89.11
63654;BME280;49809;47.418;19.080;2023-02-18T18:55:03;100461.56;;;8.22;87.97
63654;BME280;49809;47.418;19.080;2023-02-18T18:58:42;100447.84;;;8.32;87.51
63654;BME280;49809;47.418;19.080;2023-02-18T19:02:51;100452.97;;;8.39;87.22
63654;BME280;49809;47.418;19.080;2023-02-18T19:06:25;100454.66;;;8.45;87.05
63654;BME280;49809;47.418;19.080;2023-02-18T19:10:03;100459.25;;;8.49;86.38
63654;BME280;49809;47.418;19.080;2023-02-18T19:13:33;100475.06;;;8.49;86.40
63654;BME280;49809;47.418;19.080;2023-02-18T19:17:23;100456.12;;;8.52;86.96
63654;BME280;49809;47.418;19.080;2023-02-18T19:20:51;100457.19;;;8.40;90.22
63654;BME280;49809;47.418;19.080;2023-02-18T19:24:32;100461.69;;;8.27;90.60
63654;BME280;49809;47.418;19.080;2023-02-18T19:28:09;100470.19;;;8.29;90.81
63654;BME280;49809;47.418;19.080;2023-02-18T19:32:02;100471.19;;;8.28;91.25
63654;BME280;49809;47.418;19.080;2023-02-18T19:35:27;100481.16;;;8.26;91.87
63654;BME280;49809;47.418;19.080;2023-02-18T19:39:08;100488.81;;;8.28;92.02
63654;BME280;49809;47.418;19.080;2023-02-18T19:42:57;100498.50;;;8.22;91.94
63654;BME280;49809;47.418;19.080;2023-02-18T19:46:25;100512.13;;;8.19;93.84
63654;BME280;49809;47.418;19.080;2023-02-18T19:49:47;100517.97;;;8.21;92.44
63654;BME280;49809;47.418;19.080;2023-02-18T19:53:23;100526.09;;;8.20;92.85
63654;BME280;49809;47.418;19.080;2023-02-18T19:57:12;100542.41;;;8.17;93.56
63654;BME280;49809;47.418;19.080;2023-02-18T20:00:57;100541.56;;;8.28;92.52
63654;BME280;49809;47.418;19.080;2023-02-18T20:04:33;100535.66;;;8.33;91.98
63654;BME280;49809;47.418;19.080;2023-02-18T20:08:00;100521.66;;;8.44;90.69
63654;BME280;49809;47.418;19.080;2023-02-18T20:11:25;100518.69;;;8.40;91.23
63654;BME280;49809;47.418;19.080;2023-02-18T20:15:06;100533.69;;;8.40;91.21
63654;BME280;49809;47.418;19.080;2023-02-18T20:18:40;100521.50;;;8.62;89.75
63654;BME280;49809;47.418;19.080;2023-02-18T20:22:15;100533.22;;;8.54;90.19
63654;BME280;49809;47.418;19.080;2023-02-18T20:26:26;100540.34;;;8.54;90.45
63654;BME280;49809;47.418;19.080;2023-02-18T20:30:10;100539.66;;;8.47;91.01
63654;BME280;49809;47.418;19.080;2023-02-18T20:33:57;100541.84;;;8.50;91.10
63654;BME280;49809;47.418;19.080;2023-02-18T20:41:29;100539.34;;;8.32;92.42
63654;BME280;49809;47.418;19.080;2023-02-18T20:45:11;100546.50;;;8.24;92.02
63654;BME280;49809;47.418;19.080;2023-02-18T20:49:17;100538.06;;;8.22;92.33
63654;BME280;49809;47.418;19.080;2023-02-18T20:52:46;100541.38;;;8.29;91.43
63654;BME280;49809;47.418;19.080;2023-02-18T20:56:46;100540.94;;;8.33;90.90
63654;BME280;49809;47.418;19.080;2023-02-18T21:00:30;100538.28;;;8.44;89.69
63654;BME280;49809;47.418;19.080;2023-02-18T21:04:43;100542.63;;;8.39;89.67
63654;BME280;49809;47.418;19.080;2023-02-18T21:08:09;100533.22;;;8.43;89.57
63654;BME280;49809;47.418;19.080;2023-02-18T21:11:30;100543.78;;;8.43;89.68
63654;BME280;49809;47.418;19.080;2023-02-18T21:15:15;100537.94;;;8.41;89.61
63654;BME280;49809;47.418;19.080;2023-02-18T21:19:01;100552.59;;;8.48;89.37
63654;BME280;49809;47.418;19.080;2023-02-18T21:27:12;100554.22;;;8.61;88.86
63654;BME280;49809;47.418;19.080;2023-02-18T21:30:49;100552.72;;;8.65;88.26
63654;BME280;49809;47.418;19.080;2023-02-18T21:34:38;100569.47;;;8.70;88.26
63654;BME280;49809;47.418;19.080;2023-02-18T21:38:27;100564.16;;;8.82;87.68